地図

経路データ

SID SEASON NUMBER BASIN SUBBASIN NAME ISO_TIME NATURE LAT LON WMO_WIND WMO_PRES WMO_AGENCY TRACK_TYPE DIST2LAND LANDFALL IFLAG USA_AGENCY USA_ATCF_ID USA_LAT USA_LON USA_RECORD USA_STATUS USA_WIND USA_PRES USA_SSHS USA_R34_NE USA_R34_SE USA_R34_SW USA_R34_NW USA_R50_NE USA_R50_SE USA_R50_SW USA_R50_NW USA_R64_NE USA_R64_SE USA_R64_SW USA_R64_NW USA_POCI USA_ROCI USA_RMW USA_EYE TOKYO_LAT TOKYO_LON TOKYO_GRADE TOKYO_WIND TOKYO_PRES TOKYO_R50_DIR TOKYO_R50_LONG TOKYO_R50_SHORT TOKYO_R30_DIR TOKYO_R30_LONG TOKYO_R30_SHORT TOKYO_LAND CMA_LAT CMA_LON CMA_CAT CMA_WIND CMA_PRES HKO_LAT HKO_LON HKO_CAT HKO_WIND HKO_PRES NEWDELHI_LAT NEWDELHI_LON NEWDELHI_GRADE NEWDELHI_WIND NEWDELHI_PRES NEWDELHI_CI NEWDELHI_DP NEWDELHI_POCI REUNION_LAT REUNION_LON REUNION_TYPE REUNION_WIND REUNION_PRES REUNION_TNUM REUNION_CI REUNION_RMW REUNION_R34_NE REUNION_R34_SE REUNION_R34_SW REUNION_R34_NW REUNION_R50_NE REUNION_R50_SE REUNION_R50_SW REUNION_R50_NW REUNION_R64_NE REUNION_R64_SE REUNION_R64_SW REUNION_R64_NW BOM_LAT BOM_LON BOM_TYPE BOM_WIND BOM_PRES BOM_TNUM BOM_CI BOM_RMW BOM_R34_NE BOM_R34_SE BOM_R34_SW BOM_R34_NW BOM_R50_NE BOM_R50_SE BOM_R50_SW BOM_R50_NW BOM_R64_NE BOM_R64_SE BOM_R64_SW BOM_R64_NW BOM_ROCI BOM_POCI BOM_EYE BOM_POS_METHOD BOM_PRES_METHOD NADI_LAT NADI_LON NADI_CAT NADI_WIND NADI_PRES WELLINGTON_LAT WELLINGTON_LON WELLINGTON_WIND WELLINGTON_PRES DS824_LAT DS824_LON DS824_STAGE DS824_WIND DS824_PRES TD9636_LAT TD9636_LON TD9636_STAGE TD9636_WIND TD9636_PRES TD9635_LAT TD9635_LON TD9635_WIND TD9635_PRES TD9635_ROCI NEUMANN_LAT NEUMANN_LON NEUMANN_CLASS NEUMANN_WIND NEUMANN_PRES MLC_LAT MLC_LON MLC_CLASS MLC_WIND MLC_PRES USA_GUST BOM_GUST BOM_GUST_PER REUNION_GUST REUNION_GUST_PER USA_SEAHGT USA_SEARAD_NE USA_SEARAD_SE USA_SEARAD_SW USA_SEARAD_NW STORM_SPEED STORM_DIR
1906188N24090 1906 21 NI BB NOT_NAMED 1906-07-07 00:00:00 TS 23.9000 90.0000 main 0 0 _________O____ -1 23.9000 90.0000 TC 30 2 229
1906188N24090 1906 21 NI BB NOT_NAMED 1906-07-07 03:00:00 TS 23.8267 89.9016 main 0 0 _________PO___ -1 23.7900 89.8524 TC 30 23.9000 90.0000 1 3 235
1906188N24090 1906 21 NI BB NOT_NAMED 1906-07-07 06:00:00 TS 23.7457 89.7536 main 0 0 _________OP___ -1 23.7000 89.7000 TC 30 23.8143 89.8341 1 3 242
1906188N24090 1906 21 NI BB NOT_NAMED 1906-07-07 09:00:00 TS 23.6812 89.5991 main 0 0 _________PP___ -1 23.6425 89.5425 TC 30 23.7328 89.6746 1 3 247
1906188N24090 1906 21 NI BB NOT_NAMED 1906-07-07 12:00:00 TS 23.6300 89.4639 main 0 0 _________OP___ -1 23.6000 89.4000 TC 30 23.6599 89.5279 1 3 245
1906188N24090 1906 21 NI BB NOT_NAMED 1906-07-07 15:00:00 TS 23.5750 89.3500 main 0 0 _________PO___ -1 23.5500 89.3000 TC 30 23.6000 89.4000 1 2 243
1906188N24090 1906 21 NI BB NOT_NAMED 1906-07-07 18:00:00 TS 23.5274 89.2462 main 0 0 _________OP___ -1 23.5000 89.2000 TC 30 23.5548 89.2925 1 2 246
1906188N24090 1906 21 NI BB NOT_NAMED 1906-07-07 21:00:00 TS 23.4860 89.1340 main 0 0 _________PP___ -1 23.4574 89.0801 TC 30 23.5146 89.1879 1 3 249
1906188N24090 1906 21 NI BB NOT_NAMED 1906-07-08 00:00:00 TS 23.4336 88.9822 main 0 0 _________OP___ -1 23.4000 88.9000 TC 30 23.4672 89.0644 1 4 250
1906188N24090 1906 21 NI BB NOT_NAMED 1906-07-08 03:00:00 TS 23.3575 88.7575 main 0 0 _________PO___ -1 23.3151 88.6150 TC 30 23.4000 88.9000 1 5 247
1906188N24090 1906 21 NI BB NOT_NAMED 1906-07-08 06:00:00 TS 23.2442 88.4900 main 0 0 _________OP___ -1 23.2000 88.3000 TC 30 23.2884 88.6801 1 5 242
1906188N24090 1906 21 NI BB NOT_NAMED 1906-07-08 09:00:00 TS 23.1036 88.2374 main 0 0 _________PP___ -1 23.0498 88.0575 TC 30 23.1574 88.4172 1 6 240
1906188N24090 1906 21 NI BB NOT_NAMED 1906-07-08 12:00:00 TS 22.9614 87.9604 main 0 0 _________OP___ -1 22.9000 87.8000 TC 30 23.0227 88.1207 1 6 245
1906188N24090 1906 21 NI BB NOT_NAMED 1906-07-08 15:00:00 TS 22.8425 87.6325 main 0 0 _________PO___ -1 22.7850 87.4650 TC 30 22.9000 87.8000 1 7 252
1906188N24090 1906 21 NI BB NOT_NAMED 1906-07-08 18:00:00 TS 22.7574 87.2839 main 0 0 _________OP___ -1 22.7000 87.1000 TC 30 22.8147 87.4678 1 7 257
1906188N24090 1906 21 NI BB NOT_NAMED 1906-07-08 21:00:00 TS 22.6962 86.9327 main 0 0 _________PP___ -1 22.6499 86.7501 TC 30 22.7426 87.1154 1 7 260
1906188N24090 1906 21 NI BB NOT_NAMED 1906-07-09 00:00:00 TS 22.6370 86.5776 main 0 0 _________OP___ -1 22.6000 86.4000 TC 30 22.6741 86.7553 1 7 258
1906188N24090 1906 21 NI BB NOT_NAMED 1906-07-09 03:00:00 TS 22.5537 86.2212 main 0 0 _________PO___ -1 22.5075 86.0425 TC 30 22.6000 86.4000 1 7 254
1906188N24090 1906 21 NI BB NOT_NAMED 1906-07-09 06:00:00 TS 22.4515 85.8798 main 0 0 _________OP___ -1 22.4000 85.7000 TC 30 22.5030 86.0597 1 6 252
1906188N24090 1906 21 NI BB NOT_NAMED 1906-07-09 09:00:00 TS 22.3499 85.5563 main 0 0 _________PP___ -1 22.2999 85.3850 TC 30 22.3998 85.7275 1 6 251
1906188N24090 1906 21 NI BB NOT_NAMED 1906-07-09 12:00:00 TS 22.2484 85.2533 main 0 0 _________OP___ -1 22.2000 85.1000 TC 30 22.2968 85.4065 1 6 249
1906188N24090 1906 21 NI BB NOT_NAMED 1906-07-09 15:00:00 TS 22.1462 84.9750 main 0 0 _________PO___ -1 22.0924 84.8500 TC 30 22.2000 85.1000 1 5 249
1906188N24090 1906 21 NI BB NOT_NAMED 1906-07-09 18:00:00 TS 22.0527 84.7074 main 0 0 _________OP___ -1 22.0000 84.6000 TC 30 22.1053 84.8147 1 5 252
1906188N24090 1906 21 NI BB NOT_NAMED 1906-07-09 21:00:00 TS 21.9810 84.4250 main 0 0 _________PP___ -1 21.9425 84.3076 TC 30 22.0196 84.5425 1 5 256
1906188N24090 1906 21 NI BB NOT_NAMED 1906-07-10 00:00:00 TS 21.9245 84.1370 main 0 0 _________OP___ -1 21.9000 84.0000 TC 30 21.9491 84.2740 1 5 258
1906188N24090 1906 21 NI BB NOT_NAMED 1906-07-10 03:00:00 TS 21.8675 83.8500 main 0 0 _________PO___ -1 21.8349 83.6999 TC 30 21.9000 84.0000 1 6 260
1906188N24090 1906 21 NI BB NOT_NAMED 1906-07-10 06:00:00 TS 21.8291 83.5475 main 0 0 _________OP___ -1 21.8000 83.4000 TC 30 21.8582 83.6950 1 6 267
1906188N24090 1906 21 NI BB NOT_NAMED 1906-07-10 09:00:00 TS 21.8338 83.2387 main 0 0 _________PP___ -1 21.8275 83.0925 TC 30 21.8401 83.3849 1 6 275
1906188N24090 1906 21 NI BB NOT_NAMED 1906-07-10 12:00:00 TS 21.8760 82.9412 main 0 0 _________OP___ -1 21.9000 82.8000 TC 30 21.8519 83.0824 1 5 282
1906188N24090 1906 21 NI BB NOT_NAMED 1906-07-10 15:00:00 TS 21.9425 82.6675 main 0 0 _________PO___ -1 21.9850 82.5350 TC 30 21.9000 82.8000 1 5 289
1906188N24090 1906 21 NI BB NOT_NAMED 1906-07-10 18:00:00 TS 22.0359 82.4410 main 0 0 _________OP___ -1 22.1000 82.3000 TC 30 21.9878 82.5468 1 5 298
1906188N24090 1906 21 NI BB NOT_NAMED 1906-07-10 21:00:00 TS 22.1615 82.2278 main 0 0 _________PP___ -1 22.2425 82.0926 TC 30 22.1075 82.3180 1 5 305
1906188N24090 1906 21 NI BB NOT_NAMED 1906-07-11 00:00:00 TS 22.2990 82.0367 main 0 0 _________OP___ -1 22.4000 81.9000 TC 30 22.2485 82.1051 1 4 308
1906188N24090 1906 21 NI BB NOT_NAMED 1906-07-11 03:00:00 NR 22.4000 81.9000 main 0 __________O___ -1 TC 22.4000 81.9000 1 3 308

IBTrACS Databaseについて

本データベースは、米国NOAAが公開する1842年以降の世界の熱帯低気圧のベストトラックデータアーカイブInternational Best Track Archive for Climate Stewardship (IBTrACS)を、ウェブで閲覧しやすい形式に変換したものです。

最終更新日:2021-10-08